createdAt,value
2023-02-13T00:02:27.434Z,36.57
2023-02-13T00:05:17.517Z,38.70
2023-02-13T00:08:06.544Z,35.37
2023-02-13T00:10:55.611Z,39.03
2023-02-13T00:13:45.808Z,36.20
2023-02-13T00:16:35.448Z,35.70
2023-02-13T00:19:24.194Z,38.97
2023-02-13T00:22:13.047Z,37.57
2023-02-13T00:25:02.121Z,37.87
2023-02-13T00:27:54.141Z,34.87
2023-02-13T00:30:44.940Z,36.40
2023-02-13T00:33:35.707Z,40.37
2023-02-13T00:36:25.686Z,35.73
2023-02-13T00:39:14.490Z,35.00
2023-02-13T00:42:03.740Z,37.83
2023-02-13T00:44:52.461Z,34.77
2023-02-13T00:47:42.729Z,37.47
2023-02-13T00:50:32.498Z,36.63
2023-02-13T00:53:21.532Z,38.37
2023-02-13T00:56:10.288Z,35.00
2023-02-13T00:58:59.273Z,36.57
2023-02-13T01:01:48.061Z,33.90
2023-02-13T01:04:38.992Z,36.53
2023-02-13T01:07:27.690Z,35.43
2023-02-13T01:10:16.380Z,32.53
2023-02-13T01:13:05.595Z,34.77
2023-02-13T01:15:55.120Z,32.20
2023-02-13T01:18:43.768Z,36.83
2023-02-13T01:21:34.097Z,31.33
2023-02-13T01:24:22.853Z,35.37
2023-02-13T01:27:11.642Z,35.00
2023-02-13T01:30:03.447Z,38.23
2023-02-13T01:32:52.147Z,41.10
2023-02-13T01:35:41.069Z,36.20
2023-02-13T01:38:33.258Z,31.57
2023-02-13T01:41:22.535Z,30.57
2023-02-13T01:44:44.425Z,35.20
2023-02-13T01:47:41.381Z,38.50
2023-02-13T01:50:34.469Z,36.10
2023-02-13T01:53:27.322Z,36.50
2023-02-13T01:56:23.184Z,37.40
2023-02-13T01:59:17.117Z,30.47
2023-02-13T02:02:06.283Z,34.07
2023-02-13T02:04:55.394Z,36.80
2023-02-13T02:07:45.850Z,30.80
2023-02-13T02:10:35.824Z,31.63
2023-02-13T02:13:28.153Z,34.90
2023-02-13T02:16:24.912Z,30.47
2023-02-13T02:19:27.050Z,35.67
2023-02-13T02:22:53.953Z,31.50
2023-02-13T02:26:16.242Z,34.70
2023-02-13T02:29:45.832Z,31.20
2023-02-13T02:32:51.262Z,33.77
2023-02-13T02:35:51.058Z,32.23
2023-02-13T02:39:00.463Z,33.13
2023-02-13T02:42:00.502Z,27.93
2023-02-13T02:44:59.666Z,31.03
2023-02-13T02:48:14.680Z,32.57
2023-02-13T02:51:13.997Z,32.00
2023-02-13T02:54:31.627Z,29.50
2023-02-13T02:57:26.211Z,35.23
2023-02-13T03:00:40.448Z,34.80
2023-02-13T03:03:50.064Z,30.17
2023-02-13T03:06:48.577Z,35.43
2023-02-13T03:09:58.688Z,30.00
2023-02-13T03:13:08.200Z,31.83
2023-02-13T03:16:18.580Z,29.30
2023-02-13T03:19:35.554Z,28.00
2023-02-13T03:22:35.307Z,25.47
2023-02-13T03:25:34.572Z,31.43
2023-02-13T03:28:46.516Z,28.50
2023-02-13T03:31:39.891Z,30.03
2023-02-13T03:34:53.384Z,30.50
2023-02-13T03:37:56.091Z,30.70
2023-02-13T03:41:07.613Z,32.17
2023-02-13T03:44:04.210Z,32.73
2023-02-13T03:46:56.335Z,28.90
2023-02-13T03:50:08.030Z,31.07
2023-02-13T03:53:01.352Z,28.83
2023-02-13T03:56:08.307Z,33.80
2023-02-13T03:59:17.900Z,30.43
2023-02-13T04:02:13.905Z,24.73
2023-02-13T04:05:10.162Z,27.70
2023-02-13T04:07:59.161Z,28.73
2023-02-13T04:10:55.896Z,29.60
2023-02-13T04:13:49.264Z,33.20
2023-02-13T04:16:42.231Z,28.77
2023-02-13T04:19:32.878Z,26.07
2023-02-13T04:22:22.988Z,28.43
2023-02-13T04:25:13.404Z,29.40
2023-02-13T04:28:02.280Z,29.50
2023-02-13T04:30:51.172Z,28.43
2023-02-13T04:33:40.749Z,26.80
2023-02-13T04:36:29.613Z,29.90
2023-02-13T04:39:20.109Z,29.67
2023-02-13T04:42:08.770Z,32.43
2023-02-13T04:44:57.936Z,29.43
2023-02-13T04:47:52.297Z,28.50
2023-02-13T04:50:40.987Z,41.67
2023-02-13T04:53:29.807Z,39.30
2023-02-13T04:56:20.123Z,31.87
2023-02-13T04:59:09.154Z,32.73
2023-02-13T05:02:01.247Z,29.47
2023-02-13T05:04:50.214Z,30.83
2023-02-13T05:07:39.041Z,28.63
2023-02-13T05:10:28.301Z,31.03
2023-02-13T05:13:21.847Z,29.13
2023-02-13T05:16:11.160Z,31.17
2023-02-13T05:19:00.300Z,28.47
2023-02-13T05:22:06.397Z,31.13
2023-02-13T05:24:55.182Z,32.03
2023-02-13T05:27:44.872Z,32.23
2023-02-13T05:30:40.220Z,28.53
2023-02-13T05:33:32.530Z,28.63
2023-02-13T05:36:21.185Z,32.00
2023-02-13T05:39:10.536Z,26.77
2023-02-13T05:41:59.395Z,30.87
2023-02-13T05:44:48.148Z,30.37
2023-02-13T05:47:38.749Z,31.93
2023-02-13T05:50:27.483Z,28.50
2023-02-13T05:53:17.466Z,32.50
2023-02-13T05:56:07.534Z,28.40
2023-02-13T05:58:57.737Z,31.30
2023-02-13T06:01:46.501Z,27.63
2023-02-13T06:04:36.940Z,29.47
2023-02-13T06:07:29.476Z,30.23
2023-02-13T06:10:18.739Z,30.90
2023-02-13T06:13:07.649Z,28.33
2023-02-13T06:15:56.556Z,28.90
2023-02-13T06:18:45.370Z,28.13
2023-02-13T06:21:38.124Z,29.60
2023-02-13T06:24:27.442Z,28.67
2023-02-13T06:27:16.710Z,32.17
2023-02-13T06:30:05.813Z,29.47
2023-02-13T06:32:54.570Z,29.77
2023-02-13T06:35:43.811Z,30.27
2023-02-13T06:38:34.352Z,27.10
2023-02-13T06:41:23.090Z,25.83
2023-02-13T06:44:11.937Z,25.57
2023-02-13T06:47:01.029Z,28.03
2023-02-13T06:49:49.912Z,30.93
2023-02-13T06:52:38.892Z,27.87
2023-02-13T06:55:29.373Z,28.77
2023-02-13T06:58:17.996Z,27.90
2023-02-13T07:01:07.198Z,28.93
2023-02-13T07:03:55.948Z,31.20
2023-02-13T07:06:44.792Z,28.57
2023-02-13T07:09:34.260Z,26.57
2023-02-13T07:12:24.569Z,28.67
2023-02-13T07:15:13.529Z,24.87
2023-02-13T07:18:02.833Z,26.17
2023-02-13T07:20:51.536Z,20.57
2023-02-13T07:23:40.189Z,23.83
2023-02-13T07:26:29.786Z,23.67
2023-02-13T07:29:20.002Z,25.03
2023-02-13T07:32:09.378Z,27.57
2023-02-13T07:35:02.412Z,21.70
2023-02-13T07:37:54.842Z,21.37
2023-02-13T07:40:43.924Z,21.40
2023-02-13T07:43:33.538Z,23.40
2023-02-13T07:46:23.810Z,23.13
2023-02-13T07:49:12.654Z,22.47
2023-02-13T07:52:01.540Z,23.37
2023-02-13T07:54:51.495Z,20.17
2023-02-13T07:57:40.346Z,21.47
2023-02-13T08:00:29.512Z,20.60
2023-02-13T08:03:19.860Z,20.07
2023-02-13T08:06:10.187Z,18.10
2023-02-13T08:09:16.297Z,41.70
2023-02-13T08:12:06.707Z,60.53
2023-02-13T08:14:55.420Z,24.47
2023-02-13T08:17:44.139Z,18.27
2023-02-13T08:20:34.445Z,19.20
2023-02-13T08:23:23.470Z,19.40
2023-02-13T08:26:12.302Z,20.77
2023-02-13T08:29:01.749Z,16.77
2023-02-13T08:31:50.903Z,17.23
2023-02-13T08:34:39.680Z,17.67
2023-02-13T08:37:30.415Z,17.83
2023-02-13T08:40:19.518Z,16.03
2023-02-13T08:43:08.689Z,16.10
2023-02-13T08:46:01.371Z,16.93
2023-02-13T08:48:50.299Z,17.53
2023-02-13T08:51:39.432Z,15.40
2023-02-13T08:54:29.754Z,14.73
2023-02-13T08:57:18.623Z,12.67
2023-02-13T09:00:09.193Z,14.93
2023-02-13T09:03:02.420Z,13.77
2023-02-13T09:05:51.383Z,10.77
2023-02-13T09:08:40.107Z,11.47
2023-02-13T09:11:30.181Z,10.13
2023-02-13T09:14:19.199Z,12.30
2023-02-13T09:17:07.968Z,12.00
2023-02-13T09:19:56.809Z,13.20
2023-02-13T09:22:45.822Z,11.80
2023-02-13T09:25:34.938Z,11.03
2023-02-13T09:28:25.565Z,10.07
2023-02-13T09:31:16.694Z,12.60
2023-02-13T09:34:05.521Z,13.50
2023-02-13T09:36:54.522Z,13.37
2023-02-13T09:39:43.303Z,12.27
2023-02-13T09:42:36.976Z,11.63
2023-02-13T09:45:27.573Z,15.73
2023-02-13T09:48:23.374Z,10.70
2023-02-13T09:51:17.020Z,14.07
2023-02-13T09:54:08.333Z,14.20
2023-02-13T09:57:02.342Z,11.97
2023-02-13T10:00:00.525Z,10.90
2023-02-13T10:03:08.733Z,13.77
2023-02-13T10:06:07.570Z,14.30
2023-02-13T10:09:16.902Z,13.30
2023-02-13T10:12:22.173Z,13.47
2023-02-13T10:15:21.541Z,11.67
2023-02-13T10:18:16.568Z,11.17
2023-02-13T10:21:06.878Z,13.77
2023-02-13T10:24:00.953Z,17.93
2023-02-13T10:26:49.676Z,17.20
2023-02-13T10:30:01.986Z,18.83
2023-02-13T10:33:11.365Z,13.60
2023-02-13T10:36:04.413Z,13.97
2023-02-13T10:38:59.173Z,16.90
2023-02-13T10:41:53.619Z,17.25
2023-02-13T10:44:53.507Z,17.20
2023-02-13T10:47:58.066Z,18.70
2023-02-13T10:50:59.910Z,19.13
2023-02-13T10:54:01.472Z,14.07
2023-02-13T10:56:57.736Z,15.35
2023-02-13T11:00:04.720Z,16.77
2023-02-13T11:02:53.659Z,20.37
2023-02-13T11:05:44.438Z,18.80
2023-02-13T11:08:36.232Z,21.07
2023-02-13T11:11:34.609Z,16.37
2023-02-13T11:14:25.361Z,17.33
2023-02-13T11:17:19.883Z,17.83
2023-02-13T11:20:28.765Z,14.65
2023-02-13T11:23:28.990Z,26.17
2023-02-13T11:26:24.966Z,16.23
2023-02-13T11:29:23.635Z,16.60
2023-02-13T11:32:23.851Z,15.03
2023-02-13T11:35:29.479Z,16.07
2023-02-13T11:38:26.726Z,16.80
2023-02-13T11:41:19.261Z,19.57
2023-02-13T11:44:23.356Z,15.83
2023-02-13T11:47:14.490Z,15.30
2023-02-13T11:50:04.607Z,15.90
2023-02-13T11:52:59.242Z,16.87
2023-02-13T11:56:03.777Z,13.90
2023-02-13T11:59:05.708Z,13.57
2023-02-13T12:02:14.446Z,14.93
2023-02-13T12:05:18.543Z,19.27
2023-02-13T12:08:11.362Z,14.33
2023-02-13T12:11:05.129Z,17.53
2023-02-13T12:13:54.205Z,18.43
2023-02-13T12:16:47.459Z,18.87
2023-02-13T12:19:42.403Z,16.20
2023-02-13T12:22:35.117Z,15.77
2023-02-13T12:25:45.622Z,17.77
2023-02-13T12:28:50.476Z,15.17
2023-02-13T12:31:50.978Z,15.23
2023-02-13T12:35:01.255Z,15.60
2023-02-13T12:38:00.129Z,13.57
2023-02-13T12:41:15.110Z,13.05
2023-02-13T12:44:44.060Z,16.63
2023-02-13T12:47:38.900Z,14.90
2023-02-13T12:50:41.388Z,14.77
2023-02-13T12:53:43.819Z,16.67
2023-02-13T12:57:10.855Z,14.43
2023-02-13T13:00:14.540Z,13.80
2023-02-13T13:03:29.469Z,16.87
2023-02-13T13:06:45.021Z,15.43
2023-02-13T13:09:56.754Z,15.97
2023-02-13T13:12:55.832Z,14.90
2023-02-13T13:15:51.468Z,18.10
2023-02-13T13:18:48.953Z,27.77
2023-02-13T13:21:46.546Z,22.33
2023-02-13T13:24:49.153Z,15.60
2023-02-13T13:27:44.385Z,14.70
2023-02-13T13:30:36.559Z,17.70
2023-02-13T13:33:28.378Z,15.30
2023-02-13T13:36:24.814Z,15.67
2023-02-13T13:39:27.636Z,16.53
2023-02-13T13:42:21.014Z,18.63
2023-02-13T13:45:37.716Z,17.40
2023-02-13T13:48:55.963Z,16.07
2023-02-13T13:51:44.830Z,17.00
2023-02-13T13:54:38.575Z,17.30
2023-02-13T13:57:28.304Z,16.43
2023-02-13T14:00:30.148Z,15.77
2023-02-13T14:03:36.751Z,17.63
2023-02-13T14:06:28.049Z,13.90
2023-02-13T14:09:40.648Z,17.20
2023-02-13T14:12:48.090Z,14.23
2023-02-13T14:15:55.168Z,17.33
2023-02-13T14:18:48.942Z,15.48
2023-02-13T14:21:38.981Z,14.80
2023-02-13T14:24:27.857Z,19.77
2023-02-13T14:27:25.229Z,17.05
2023-02-13T14:30:29.566Z,16.02
2023-02-13T14:33:27.964Z,14.27
2023-02-13T14:36:27.374Z,16.85
2023-02-13T14:39:27.199Z,15.82
2023-02-13T14:42:29.638Z,17.40
2023-02-13T14:45:22.464Z,15.13
2023-02-13T14:48:16.223Z,15.85
2023-02-13T14:51:06.525Z,14.70
2023-02-13T14:54:02.741Z,17.63
2023-02-13T14:56:54.394Z,14.43
2023-02-13T14:59:52.210Z,13.37
2023-02-13T15:02:46.979Z,14.88
2023-02-13T15:05:37.224Z,14.00
2023-02-13T15:08:28.907Z,14.07
2023-02-13T15:11:37.768Z,15.20
2023-02-13T15:14:33.565Z,10.40
2023-02-13T15:17:27.492Z,13.67
2023-02-13T15:20:25.524Z,15.33
2023-02-13T15:23:22.631Z,15.80
2023-02-13T15:26:20.387Z,16.07
2023-02-13T15:29:27.759Z,17.53
2023-02-13T15:32:27.282Z,16.43
2023-02-13T15:35:26.220Z,20.65
2023-02-13T15:38:21.980Z,13.37
2023-02-13T15:41:14.284Z,13.43
2023-02-13T15:44:03.698Z,13.55
2023-02-13T15:46:54.622Z,9.90
2023-02-13T15:49:50.437Z,10.37
2023-02-13T15:52:40.984Z,13.23
2023-02-13T15:55:32.097Z,15.50
2023-02-13T15:58:21.130Z,12.80
2023-02-13T16:01:10.488Z,13.50
2023-02-13T16:04:06.413Z,18.43
2023-02-13T16:06:57.864Z,14.73
2023-02-13T16:09:48.483Z,13.37
2023-02-13T16:12:37.280Z,14.20
2023-02-13T16:15:29.664Z,14.80
2023-02-13T16:18:21.793Z,14.63
2023-02-13T16:21:10.480Z,14.00
2023-02-13T16:24:03.715Z,16.00
2023-02-13T16:26:57.913Z,14.93
2023-02-13T16:29:50.561Z,11.53
2023-02-13T16:32:41.427Z,15.40
2023-02-13T16:35:32.404Z,15.60
2023-02-13T16:38:34.068Z,15.87
2023-02-13T16:41:32.389Z,16.23
2023-02-13T16:44:27.399Z,12.90
2023-02-13T16:47:25.329Z,15.47
2023-02-13T16:50:16.509Z,10.97
2023-02-13T16:53:05.682Z,14.93
2023-02-13T16:56:00.880Z,12.77
2023-02-13T16:58:49.746Z,13.23
2023-02-13T17:01:39.774Z,11.93
2023-02-13T17:04:28.526Z,13.90
2023-02-13T17:07:20.299Z,13.10
2023-02-13T17:10:18.592Z,12.67
2023-02-13T17:13:18.080Z,12.00
2023-02-13T17:16:07.162Z,13.87
2023-02-13T17:18:57.758Z,15.40
2023-02-13T17:21:46.622Z,12.63
2023-02-13T17:24:35.418Z,11.00
2023-02-13T17:27:24.315Z,11.10
2023-02-13T17:30:16.200Z,9.40
2023-02-13T17:33:07.749Z,13.50
2023-02-13T17:35:58.278Z,13.43
2023-02-13T17:38:47.737Z,10.80
2023-02-13T17:41:42.857Z,9.63
2023-02-13T17:44:31.780Z,10.90
2023-02-13T17:47:20.855Z,11.27
2023-02-13T17:50:13.198Z,11.33
2023-02-13T17:53:07.158Z,14.17
2023-02-13T17:55:55.943Z,20.97
2023-02-13T17:58:44.930Z,11.83
2023-02-13T18:01:33.775Z,12.27
2023-02-13T18:04:22.517Z,15.33
2023-02-13T18:07:12.704Z,10.10
2023-02-13T18:10:03.185Z,10.73
2023-02-13T18:12:53.143Z,11.90
2023-02-13T18:15:44.407Z,14.57
2023-02-13T18:18:33.462Z,12.67
2023-02-13T18:21:24.407Z,9.67
2023-02-13T18:24:13.449Z,13.27
2023-02-13T18:27:05.277Z,13.50
2023-02-13T18:29:55.248Z,11.23
2023-02-13T18:32:44.144Z,10.93
2023-02-13T18:35:36.146Z,14.30
2023-02-13T18:38:24.946Z,15.07
2023-02-13T18:41:14.023Z,12.40
2023-02-13T18:44:04.645Z,12.20
2023-02-13T18:46:53.485Z,15.87
2023-02-13T18:49:42.494Z,9.90
2023-02-13T18:52:31.390Z,10.23
2023-02-13T18:55:20.398Z,11.50
2023-02-13T18:58:09.380Z,11.37
2023-02-13T19:01:07.181Z,17.37
2023-02-13T19:03:56.039Z,19.07
2023-02-13T19:06:45.836Z,13.30
2023-02-13T19:09:40.326Z,10.73
2023-02-13T19:12:29.308Z,14.27
2023-02-13T19:15:18.288Z,10.77
2023-02-13T19:18:08.487Z,10.93
2023-02-13T19:21:01.137Z,10.30
2023-02-13T19:23:50.540Z,11.80
2023-02-13T19:26:39.454Z,9.93
2023-02-13T19:29:28.666Z,11.33
2023-02-13T19:32:17.568Z,13.73
2023-02-13T19:35:08.412Z,12.47
2023-02-13T19:37:57.243Z,14.37
2023-02-13T19:40:46.169Z,12.03
2023-02-13T19:43:35.373Z,14.67
2023-02-13T19:46:25.995Z,12.07
2023-02-13T19:49:14.848Z,10.83
2023-02-13T19:52:05.057Z,14.73
2023-02-13T19:54:55.058Z,13.97
2023-02-13T19:57:43.972Z,13.77
2023-02-13T20:00:33.448Z,13.63
2023-02-13T20:03:22.757Z,12.50
2023-02-13T20:06:13.326Z,12.43
2023-02-13T20:09:06.310Z,9.73
2023-02-13T20:11:55.473Z,13.60
2023-02-13T20:14:44.280Z,13.30
2023-02-13T20:17:33.246Z,11.47
2023-02-13T20:20:22.267Z,10.47
2023-02-13T20:23:11.665Z,12.18
2023-02-13T20:26:06.167Z,15.37
2023-02-13T20:28:57.336Z,13.17
2023-02-13T20:31:47.752Z,13.17
2023-02-13T20:34:44.169Z,10.63
2023-02-13T20:37:38.743Z,9.93
2023-02-13T20:40:28.363Z,16.10
2023-02-13T20:43:18.452Z,13.10
2023-02-13T20:46:07.685Z,9.27
2023-02-13T20:48:56.574Z,12.83
2023-02-13T20:51:45.286Z,14.97
2023-02-13T20:54:34.408Z,11.67
2023-02-13T20:57:23.483Z,29.30
2023-02-13T21:00:18.045Z,17.60
2023-02-13T21:03:07.138Z,17.27
2023-02-13T21:05:56.389Z,9.57
2023-02-13T21:08:45.291Z,12.77
2023-02-13T21:11:35.208Z,11.27
2023-02-13T21:14:24.345Z,10.80
2023-02-13T21:17:15.126Z,12.77
2023-02-13T21:20:05.793Z,11.13
2023-02-13T21:22:54.911Z,12.73
2023-02-13T21:25:43.964Z,9.43
2023-02-13T21:28:33.587Z,10.60
2023-02-13T21:31:25.719Z,10.87
2023-02-13T21:34:17.966Z,10.23
2023-02-13T21:37:07.273Z,10.67
2023-02-13T21:39:56.075Z,11.50
2023-02-13T21:42:44.922Z,11.33
2023-02-13T21:45:35.367Z,14.20
2023-02-13T21:48:24.185Z,11.97
2023-02-13T21:51:16.585Z,10.33
2023-02-13T21:54:06.198Z,8.80
2023-02-13T21:56:55.104Z,10.53
2023-02-13T21:59:43.998Z,11.73
2023-02-13T22:02:33.057Z,10.40
2023-02-13T22:05:22.148Z,11.00
2023-02-13T22:08:12.770Z,11.77
2023-02-13T22:11:02.327Z,10.37
2023-02-13T22:13:55.172Z,11.53
2023-02-13T22:16:45.526Z,11.10
2023-02-13T22:19:34.726Z,11.10
2023-02-13T22:22:23.495Z,11.90
2023-02-13T22:25:14.741Z,12.07
2023-02-13T22:28:03.621Z,13.67
2023-02-13T22:30:52.851Z,12.27
2023-02-13T22:33:42.941Z,11.53
2023-02-13T22:36:34.811Z,10.53
2023-02-13T22:39:23.786Z,12.63
2023-02-13T22:42:14.315Z,12.17
2023-02-13T22:45:03.746Z,12.63
2023-02-13T22:47:52.610Z,12.33
2023-02-13T22:50:41.583Z,12.30
2023-02-13T22:53:30.579Z,12.47
2023-02-13T22:56:19.504Z,12.23
2023-02-13T22:59:10.928Z,12.47
2023-02-13T23:01:59.670Z,12.93
2023-02-13T23:04:48.926Z,10.57
2023-02-13T23:07:37.823Z,11.10
2023-02-13T23:10:26.969Z,9.20
2023-02-13T23:13:14.802Z,12.57
2023-02-13T23:16:05.114Z,9.27
2023-02-13T23:18:54.460Z,10.10
2023-02-13T23:21:43.304Z,10.03
2023-02-13T23:24:32.570Z,9.87
2023-02-13T23:27:21.352Z,12.27
2023-02-13T23:30:11.924Z,10.57
2023-02-13T23:33:03.252Z,11.53
2023-02-13T23:35:52.454Z,11.83
2023-02-13T23:38:41.496Z,10.73
2023-02-13T23:41:30.579Z,13.40
2023-02-13T23:44:19.892Z,12.37
2023-02-13T23:47:08.711Z,12.63
2023-02-13T23:49:58.746Z,10.97
2023-02-13T23:52:50.982Z,8.50
2023-02-13T23:55:39.778Z,12.57
2023-02-13T23:58:32.337Z,12.93
